• Join FlightAware (Why Join?)
  • Login
  • US Flag 
06:43AM EDT


 

Airport Tracker/Info


-or-


 

Live Flight TrackerFlight Track Log ✈ BMJ70 ✈ 09-Nov-2013 ✈ KGPZ - KBJI

Flight Track Log - Related Links

Times and Time Zones

All times are in EST time to prevent confusion due to time zone crossing. See the BMJ70 flight status page for this flight to view local times or setup timezone preferences in your user account.

Time Position Orientation Groundspeed Altitude Reporting Facility
EST Latitude Longitude Course Direction KTS MPH feet Rate Location/Type
09:50AM 47.2325 -93.5725 280° West 115 132 3,100  Level Minneapolis Center
09:51AM 47.2342 -93.6233 273° West 119 137 4,000 780 Climbing Minneapolis Center
09:52AM 47.2306 -93.6767 264° West 125 144 4,800 900 Climbing Minneapolis Center
09:53AM 47.2788 -93.8313 288° West  Level FlightAware Approximate
09:53AM 47.2203 -93.7253 253° West 126 145 5,900  Level Minneapolis Center
09:54AM 47.2903 -93.8855 287° West  Level FlightAware Approximate
09:54AM 47.2206 -93.7900 270° West 128 147 6,000  Level Minneapolis Center
09:55AM 47.2269 -93.8475 279° West 135 155 6,000  Level Minneapolis Center
09:56AM 47.2350 -93.9017 282° West 137 158 6,000  Level Minneapolis Center
09:57AM 47.2458 -93.9542 287° West 136 157 6,000  Level Minneapolis Center
09:58AM 47.2556 -94.0075 285° West 135 155 6,000  Level Minneapolis Center
09:59AM 47.2658 -94.0597 286° West 135 155 6,000  Level Minneapolis Center
10:00AM 47.2772 -94.1133 287° West 135 155 6,000  Level Minneapolis Center
10:01AM 47.2861 -94.1683 283° West 137 158 6,000  Level Minneapolis Center
10:02AM 47.2953 -94.2247 283° West 139 160 6,000 -60 Level Minneapolis Center
10:04AM 47.3028 -94.2822 281° West 141 162 5,900 -60 Descending Minneapolis Center
10:05AM 47.3056 -94.3422 274° West 144 166 5,900  Level Minneapolis Center
10:06AM 47.3106 -94.4119 276° West 144 166 5,900  Level Minneapolis Center
10:07AM 47.3167 -94.4686 279° West 142 163 5,900 -60 Level Minneapolis Center
10:08AM 47.3225 -94.5256 279° West 141 162 5,800 -480 Descending Minneapolis Center
10:09AM 47.3289 -94.5844 279° West 143 165 5,000 -480 Descending Minneapolis Center
10:10AM 47.3439 -94.6331 294° West 137 158 4,900 -60 Descending Minneapolis Center
10:11AM 47.3661 -94.6747 308° West 131 151 4,900 -240 Level Minneapolis Center
10:12AM 47.3808 -94.7206 295° West 127 146 4,500 -480 Descending Minneapolis Center
10:13AM 47.3953 -94.7678 294° West 128 147 4,000 -660 Descending Minneapolis Center
10:14AM 47.4211 -94.8039 317° Northwest 125 144 3,200 -480 Descending Minneapolis Center
10:15AM 47.4483 -94.8433 316° Northwest 126 145 3,100 -60 Descending Minneapolis Center
10:16AM 47.4689 -94.8728 316° Northwest 124 143 3,100  Level Minneapolis Center
10:18AM 47.5000 -94.9333 270° West  Level FlightAware Approximate